createdAt,value
2023-05-30T00:00:29.293Z,0.00
2023-05-30T00:01:29.293Z,0.00
2023-05-30T00:02:29.364Z,0.00
2023-05-30T00:03:29.325Z,0.00
2023-05-30T00:04:29.268Z,0.00
2023-05-30T00:05:29.253Z,0.00
2023-05-30T00:06:29.238Z,0.00
2023-05-30T00:07:29.216Z,0.00
2023-05-30T00:08:29.244Z,0.00
2023-05-30T00:09:29.203Z,0.00
2023-05-30T00:10:29.183Z,0.00
2023-05-30T00:11:29.179Z,0.00
2023-05-30T00:12:29.179Z,0.00
2023-05-30T00:13:29.159Z,0.00
2023-05-30T00:14:29.132Z,0.00
2023-05-30T00:15:29.128Z,0.00
2023-05-30T00:16:29.249Z,0.00
2023-05-30T00:17:29.149Z,0.00
2023-05-30T00:18:29.128Z,0.00
2023-05-30T00:19:29.091Z,0.00
2023-05-30T00:20:29.116Z,0.00
2023-05-30T00:21:29.049Z,0.00
2023-05-30T00:22:29.057Z,0.00
2023-05-30T00:23:29.052Z,0.00
2023-05-30T00:24:29.061Z,0.00
2023-05-30T00:25:29.023Z,0.00
2023-05-30T00:26:28.999Z,0.00
2023-05-30T00:27:29.013Z,0.00
2023-05-30T00:28:29.004Z,0.00
2023-05-30T00:29:28.977Z,0.00
2023-05-30T00:30:28.980Z,0.00
2023-05-30T00:31:28.969Z,0.00
2023-05-30T00:32:28.988Z,0.00
2023-05-30T00:33:28.942Z,0.00
2023-05-30T00:34:28.911Z,0.00
2023-05-30T00:35:28.907Z,0.00
2023-05-30T00:36:28.925Z,0.00
2023-05-30T00:37:28.895Z,0.00
2023-05-30T00:38:28.903Z,0.00
2023-05-30T00:39:28.870Z,0.00
2023-05-30T00:40:28.852Z,0.00
2023-05-30T00:41:28.829Z,0.00
2023-05-30T00:42:28.839Z,0.00
2023-05-30T00:43:28.824Z,0.00
2023-05-30T00:44:28.811Z,0.00
2023-05-30T00:45:28.794Z,0.00
2023-05-30T00:46:28.837Z,0.00
2023-05-30T00:47:28.821Z,0.00
2023-05-30T00:48:28.760Z,0.00
2023-05-30T00:49:28.766Z,0.00
2023-05-30T00:50:28.800Z,0.00
2023-05-30T00:51:28.733Z,0.00
2023-05-30T00:52:28.719Z,0.00
2023-05-30T00:53:28.727Z,0.00
2023-05-30T00:54:28.704Z,0.00
2023-05-30T00:55:28.698Z,0.00
2023-05-30T00:56:28.671Z,0.00
2023-05-30T00:57:28.677Z,0.00
2023-05-30T00:58:28.645Z,0.00
2023-05-30T00:59:28.698Z,0.00
2023-05-30T01:00:28.611Z,0.00
2023-05-30T01:01:28.672Z,0.00
2023-05-30T01:02:28.667Z,0.00
2023-05-30T01:03:28.695Z,0.00
2023-05-30T01:04:28.577Z,0.00
2023-05-30T01:05:28.575Z,0.00
2023-05-30T01:06:28.586Z,0.00
2023-05-30T01:07:28.548Z,0.00
2023-05-30T01:08:28.543Z,0.00
2023-05-30T01:09:28.536Z,0.00
2023-05-30T01:10:28.524Z,0.00
2023-05-30T01:11:28.516Z,0.00
2023-05-30T01:12:28.503Z,0.00
2023-05-30T01:13:28.500Z,0.00
2023-05-30T01:14:28.474Z,0.00
2023-05-30T01:15:28.470Z,0.00
2023-05-30T01:16:28.523Z,0.00
2023-05-30T01:17:28.480Z,0.00
2023-05-30T01:18:28.444Z,0.00
2023-05-30T01:19:28.442Z,0.00
2023-05-30T01:20:28.509Z,0.00
2023-05-30T01:21:28.399Z,0.00
2023-05-30T01:22:28.387Z,0.00
2023-05-30T01:23:28.384Z,0.00
2023-05-30T01:24:28.358Z,0.00
2023-05-30T01:25:28.403Z,0.00
2023-05-30T01:26:28.335Z,0.00
2023-05-30T01:27:28.334Z,0.00
2023-05-30T01:28:28.307Z,0.00
2023-05-30T01:29:28.305Z,0.00
2023-05-30T01:30:28.282Z,0.00
2023-05-30T01:31:28.294Z,0.00
2023-05-30T01:32:28.284Z,0.00
2023-05-30T01:33:28.288Z,0.00
2023-05-30T01:34:28.244Z,0.00
2023-05-30T01:35:28.231Z,0.00
2023-05-30T01:36:28.257Z,0.00
2023-05-30T01:37:28.238Z,0.00
2023-05-30T01:38:28.189Z,0.00
2023-05-30T01:39:28.209Z,0.00
2023-05-30T01:40:28.197Z,0.00
2023-05-30T01:41:28.180Z,0.00
2023-05-30T01:42:28.193Z,0.00
2023-05-30T01:43:28.148Z,0.00
2023-05-30T01:44:28.140Z,0.00
2023-05-30T01:45:28.145Z,0.00
2023-05-30T01:46:28.144Z,0.00
2023-05-30T01:47:28.198Z,0.00
2023-05-30T01:48:28.092Z,0.00
2023-05-30T01:49:28.099Z,0.00
2023-05-30T01:50:28.078Z,0.00
2023-05-30T01:51:28.069Z,0.00
2023-05-30T01:52:28.053Z,0.00
2023-05-30T01:53:28.079Z,0.00
2023-05-30T01:54:28.025Z,0.00
2023-05-30T01:55:28.017Z,0.00
2023-05-30T01:56:28.004Z,0.00
2023-05-30T01:57:28.007Z,0.00
2023-05-30T01:58:27.983Z,0.00
2023-05-30T01:59:27.983Z,0.00
2023-05-30T02:00:27.953Z,0.00
2023-05-30T02:01:28.025Z,0.00
2023-05-30T02:02:27.950Z,0.00
2023-05-30T02:03:27.924Z,0.00
2023-05-30T02:04:27.908Z,0.00
2023-05-30T02:05:27.976Z,0.00
2023-05-30T02:06:27.891Z,0.00
2023-05-30T02:07:27.890Z,0.00
2023-05-30T02:08:27.872Z,0.00
2023-05-30T02:09:27.867Z,0.00
2023-05-30T02:10:27.842Z,0.00
2023-05-30T02:11:27.840Z,0.00
2023-05-30T02:12:27.842Z,0.00
2023-05-30T02:13:27.823Z,0.00
2023-05-30T02:14:27.800Z,0.00
2023-05-30T02:15:27.837Z,0.00
2023-05-30T02:16:27.816Z,0.00
2023-05-30T02:17:27.810Z,0.00
2023-05-30T02:18:27.771Z,0.00
2023-05-30T02:19:27.775Z,0.00
2023-05-30T02:20:27.766Z,0.00
2023-05-30T02:21:27.753Z,0.00
2023-05-30T02:22:27.743Z,0.00
2023-05-30T02:23:27.729Z,0.00
2023-05-30T02:24:27.711Z,0.00
2023-05-30T02:25:27.719Z,0.00
2023-05-30T02:26:27.696Z,0.00
2023-05-30T02:27:27.678Z,0.00
2023-05-30T02:28:27.655Z,0.00
2023-05-30T02:29:27.644Z,0.00
2023-05-30T02:30:27.638Z,0.00
2023-05-30T02:31:27.609Z,0.00
2023-05-30T02:32:27.676Z,0.00
2023-05-30T02:33:27.602Z,0.00
2023-05-30T02:34:27.584Z,0.00
2023-05-30T02:35:27.575Z,0.00
2023-05-30T02:36:27.569Z,0.00
2023-05-30T02:37:27.561Z,0.00
2023-05-30T02:38:27.572Z,0.00
2023-05-30T02:39:27.530Z,0.00
2023-05-30T02:40:27.508Z,0.00
2023-05-30T02:41:27.523Z,0.00
2023-05-30T02:42:27.495Z,0.00
2023-05-30T02:43:27.494Z,0.00
2023-05-30T02:44:27.466Z,0.00
2023-05-30T02:45:27.488Z,0.00
2023-05-30T02:46:27.474Z,0.00
2023-05-30T02:47:27.477Z,0.00
2023-05-30T02:48:27.442Z,0.00
2023-05-30T02:49:27.438Z,0.00
2023-05-30T02:50:27.407Z,0.00
2023-05-30T02:51:27.406Z,0.00
2023-05-30T02:52:27.402Z,0.00
2023-05-30T02:53:27.374Z,0.00
2023-05-30T02:54:27.393Z,0.00
2023-05-30T02:55:27.378Z,0.00
2023-05-30T02:56:27.348Z,0.00
2023-05-30T02:57:27.339Z,0.00
2023-05-30T02:58:27.330Z,0.00
2023-05-30T02:59:27.318Z,0.00
2023-05-30T03:00:27.290Z,4.00
2023-05-30T03:01:27.324Z,4.00
2023-05-30T03:02:27.293Z,4.00
2023-05-30T03:03:27.270Z,4.00
2023-05-30T03:04:27.267Z,4.00
2023-05-30T03:05:27.259Z,4.00
2023-05-30T03:06:27.273Z,4.00
2023-05-30T03:07:27.232Z,8.00
2023-05-30T03:08:27.207Z,4.00
2023-05-30T03:09:27.200Z,8.00
2023-05-30T03:10:27.195Z,8.00
2023-05-30T03:11:27.197Z,8.00
2023-05-30T03:12:27.182Z,12.00
2023-05-30T03:13:27.170Z,12.00
2023-05-30T03:14:27.160Z,16.00
2023-05-30T03:15:27.146Z,20.00
2023-05-30T03:16:27.208Z,24.00
2023-05-30T03:17:27.160Z,24.00
2023-05-30T03:18:27.092Z,28.00
2023-05-30T03:19:27.094Z,32.00
2023-05-30T03:20:27.138Z,36.00
2023-05-30T03:21:27.074Z,40.00
2023-05-30T03:22:27.048Z,44.00
2023-05-30T03:23:27.064Z,52.00
2023-05-30T03:24:27.030Z,56.00
2023-05-30T03:25:27.008Z,60.00
2023-05-30T03:26:27.011Z,64.00
2023-05-30T03:27:26.993Z,72.00
2023-05-30T03:28:26.988Z,80.00
2023-05-30T03:29:26.978Z,88.00
2023-05-30T03:30:27.005Z,92.00
2023-05-30T03:31:26.953Z,100.00
2023-05-30T03:32:26.969Z,108.00
2023-05-30T03:33:26.930Z,120.00
2023-05-30T03:34:26.930Z,124.00
2023-05-30T03:35:26.936Z,136.00
2023-05-30T03:36:26.908Z,144.00
2023-05-30T03:37:26.912Z,156.00
2023-05-30T03:38:26.892Z,168.00
2023-05-30T03:39:26.858Z,180.00
2023-05-30T03:40:26.858Z,196.00
2023-05-30T03:41:26.853Z,208.00
2023-05-30T03:42:26.839Z,224.00
2023-05-30T03:43:26.821Z,240.00
2023-05-30T03:44:26.820Z,256.00
2023-05-30T03:45:26.801Z,276.00
2023-05-30T03:46:26.843Z,296.00
2023-05-30T03:47:26.803Z,312.00
2023-05-30T03:48:26.778Z,328.00
2023-05-30T03:49:26.769Z,348.00
2023-05-30T03:50:26.742Z,368.00
2023-05-30T03:51:26.738Z,388.00
2023-05-30T03:52:26.720Z,404.00
2023-05-30T03:53:26.708Z,428.00
2023-05-30T03:54:26.698Z,448.00
2023-05-30T03:55:26.690Z,476.00
2023-05-30T03:56:26.671Z,504.00
2023-05-30T03:57:26.646Z,532.00
2023-05-30T03:58:26.672Z,568.00
2023-05-30T03:59:26.629Z,600.00
2023-05-30T04:00:26.665Z,636.00
2023-05-30T04:01:26.606Z,672.00
2023-05-30T04:02:26.731Z,704.00
2023-05-30T04:03:26.640Z,740.00
2023-05-30T04:04:26.602Z,772.00
2023-05-30T04:05:26.571Z,804.00
2023-05-30T04:06:26.600Z,832.00
2023-05-30T04:07:26.569Z,860.00
2023-05-30T04:08:26.556Z,888.00
2023-05-30T04:09:26.550Z,920.00
2023-05-30T04:10:26.542Z,952.00
2023-05-30T04:11:26.516Z,980.00
2023-05-30T04:12:26.499Z,1012.00
2023-05-30T04:13:26.511Z,1040.00
2023-05-30T04:14:26.486Z,1064.00
2023-05-30T04:15:26.474Z,1088.00
2023-05-30T04:16:26.496Z,1120.00
2023-05-30T04:17:26.501Z,1152.00
2023-05-30T04:18:26.438Z,1188.00
2023-05-30T04:19:26.435Z,1228.00
2023-05-30T04:20:26.432Z,1272.00
2023-05-30T04:21:26.390Z,1320.00
2023-05-30T04:22:26.394Z,1368.00
2023-05-30T04:23:26.371Z,1408.00
2023-05-30T04:24:26.363Z,1440.00
2023-05-30T04:25:26.338Z,1472.00
2023-05-30T04:26:26.352Z,1496.00
2023-05-30T04:27:26.333Z,1512.00
2023-05-30T04:28:26.328Z,1532.00
2023-05-30T04:29:26.312Z,1548.00
2023-05-30T04:30:26.328Z,1572.00
2023-05-30T04:31:26.738Z,1596.00
2023-05-30T04:32:26.326Z,1628.00
2023-05-30T04:33:26.255Z,1664.00
2023-05-30T04:34:26.276Z,1704.00
2023-05-30T04:35:26.243Z,1760.00
2023-05-30T04:36:26.242Z,1796.00
2023-05-30T04:37:26.242Z,1824.00
2023-05-30T04:38:26.204Z,1844.00
2023-05-30T04:39:26.209Z,1848.00
2023-05-30T04:40:26.195Z,1832.00
2023-05-30T04:41:26.694Z,1808.00
2023-05-30T04:42:26.194Z,1780.00
2023-05-30T04:43:26.166Z,1764.00
2023-05-30T04:44:26.129Z,1760.00
2023-05-30T04:45:26.133Z,1776.00
2023-05-30T04:46:26.168Z,1804.00
2023-05-30T04:47:26.287Z,1844.00
2023-05-30T04:48:26.085Z,1880.00
2023-05-30T04:49:26.106Z,1916.00
2023-05-30T04:50:26.131Z,1952.00
2023-05-30T04:51:26.062Z,1992.00
2023-05-30T04:52:26.078Z,2040.00
2023-05-30T04:53:26.053Z,2088.00
2023-05-30T04:54:26.032Z,2136.00
2023-05-30T04:55:26.005Z,2196.00
2023-05-30T04:56:26.006Z,2252.00
2023-05-30T04:57:26.399Z,2304.00
2023-05-30T04:58:25.993Z,2360.00
2023-05-30T04:59:25.977Z,2400.00
2023-05-30T05:00:25.956Z,2432.00
2023-05-30T05:01:26.036Z,2456.00
2023-05-30T05:02:25.936Z,2472.00
2023-05-30T05:03:26.012Z,2480.00
2023-05-30T05:04:25.910Z,2492.00
2023-05-30T05:05:25.903Z,2500.00
2023-05-30T05:06:25.893Z,2504.00
2023-05-30T05:07:40.004Z,2508.00
2023-05-30T05:08:25.880Z,2508.00
2023-05-30T05:09:25.877Z,2500.00
2023-05-30T05:10:25.858Z,2484.00
2023-05-30T05:11:25.846Z,2468.00
2023-05-30T05:12:25.854Z,2456.00
2023-05-30T05:13:25.827Z,2444.00
2023-05-30T05:14:25.835Z,2440.00
2023-05-30T05:15:25.837Z,2444.00
2023-05-30T05:16:25.811Z,2468.00
2023-05-30T05:17:25.798Z,2496.00
2023-05-30T05:18:25.769Z,2524.00
2023-05-30T05:19:25.759Z,2548.00
2023-05-30T05:20:25.762Z,2564.00
2023-05-30T05:21:25.732Z,2584.00
2023-05-30T05:22:25.746Z,2600.00
2023-05-30T05:23:25.706Z,2604.00
2023-05-30T05:24:25.700Z,2588.00
2023-05-30T05:25:25.687Z,2584.00
2023-05-30T05:26:25.802Z,2584.00
2023-05-30T05:27:25.691Z,2596.00
2023-05-30T05:28:25.702Z,2624.00
2023-05-30T05:29:25.672Z,2672.00
2023-05-30T05:30:25.638Z,2720.00
2023-05-30T05:31:25.624Z,2784.00
2023-05-30T05:32:25.627Z,2856.00
2023-05-30T05:33:25.615Z,2924.00
2023-05-30T05:34:25.582Z,2984.00
2023-05-30T05:35:25.571Z,3024.00
2023-05-30T05:36:25.568Z,3040.00
2023-05-30T05:37:25.554Z,3036.00
2023-05-30T05:38:25.549Z,3044.00
2023-05-30T05:39:25.544Z,3024.00
2023-05-30T05:40:25.533Z,3020.00
2023-05-30T05:41:25.529Z,3044.00
2023-05-30T05:42:25.501Z,3092.00
2023-05-30T05:43:25.493Z,3148.00
2023-05-30T05:44:25.479Z,3208.00
2023-05-30T05:45:25.565Z,3260.00
2023-05-30T05:46:25.558Z,3276.00
2023-05-30T05:47:26.446Z,3232.00
2023-05-30T05:48:25.797Z,3164.00
2023-05-30T05:49:25.429Z,3072.00
2023-05-30T05:50:25.445Z,3012.00
2023-05-30T05:51:25.434Z,2988.00
2023-05-30T05:52:25.392Z,2992.00
2023-05-30T05:53:25.388Z,3028.00
2023-05-30T05:54:25.429Z,3084.00
2023-05-30T05:55:25.344Z,3092.00
2023-05-30T05:56:25.362Z,3144.00
2023-05-30T05:57:25.335Z,3208.00
2023-05-30T05:58:25.310Z,3288.00
2023-05-30T05:59:25.309Z,3420.00
2023-05-30T06:00:25.293Z,3536.00
2023-05-30T06:01:25.302Z,3612.00
2023-05-30T06:02:25.371Z,3628.00
2023-05-30T06:03:25.326Z,3688.00
2023-05-30T06:04:25.312Z,3728.00
2023-05-30T06:05:25.241Z,3776.00
2023-05-30T06:06:25.233Z,3824.00
2023-05-30T06:07:25.231Z,3864.00
2023-05-30T06:08:25.230Z,3972.00
2023-05-30T06:09:25.196Z,4076.00
2023-05-30T06:10:25.176Z,4156.00
2023-05-30T06:11:25.163Z,4248.00
2023-05-30T06:12:25.172Z,4320.00
2023-05-30T06:13:25.138Z,4312.00
2023-05-30T06:14:25.132Z,4344.00
2023-05-30T06:15:25.115Z,4380.00
2023-05-30T06:16:25.146Z,4400.00
2023-05-30T06:17:25.270Z,4404.00
2023-05-30T06:18:25.104Z,4368.00
2023-05-30T06:19:25.087Z,4368.00
2023-05-30T06:20:25.109Z,4424.00
2023-05-30T06:21:25.073Z,4472.00
2023-05-30T06:22:25.069Z,4552.00
2023-05-30T06:23:25.023Z,4552.00
2023-05-30T06:24:25.020Z,4536.00
2023-05-30T06:25:25.019Z,4532.00
2023-05-30T06:26:25.012Z,4608.00
2023-05-30T06:27:24.999Z,4644.00
2023-05-30T06:28:24.992Z,4632.00
2023-05-30T06:29:24.993Z,4644.00
2023-05-30T06:30:24.979Z,4636.00
2023-05-30T06:31:24.970Z,4632.00
2023-05-30T06:32:25.000Z,4636.00
2023-05-30T06:33:24.966Z,4628.00
2023-05-30T06:34:24.918Z,4664.00
2023-05-30T06:35:24.908Z,4708.00
2023-05-30T06:36:24.887Z,4792.00
2023-05-30T06:37:24.882Z,4880.00
2023-05-30T06:38:24.880Z,4992.00
2023-05-30T06:39:24.854Z,5072.00
2023-05-30T06:40:24.871Z,5180.00
2023-05-30T06:41:24.847Z,5348.00
2023-05-30T06:42:24.829Z,5508.00
2023-05-30T06:43:24.825Z,5676.00
2023-05-30T06:44:24.834Z,5832.00
2023-05-30T06:45:24.796Z,5996.00
2023-05-30T06:46:24.806Z,6132.00
2023-05-30T06:47:24.785Z,6252.00
2023-05-30T06:48:24.764Z,6360.00
2023-05-30T06:49:24.747Z,6448.00
2023-05-30T06:50:24.739Z,6520.00
2023-05-30T06:51:24.733Z,6556.00
2023-05-30T06:52:24.746Z,6600.00
2023-05-30T06:53:24.733Z,6644.00
2023-05-30T06:54:24.691Z,6660.00
2023-05-30T06:55:24.676Z,6656.00
2023-05-30T06:56:24.677Z,6644.00
2023-05-30T06:57:24.658Z,6640.00
2023-05-30T06:58:24.664Z,6612.00
2023-05-30T06:59:24.664Z,6600.00
2023-05-30T07:00:24.706Z,6612.00
2023-05-30T07:01:24.661Z,6656.00
2023-05-30T07:02:24.662Z,6696.00
2023-05-30T07:03:24.600Z,6772.00
2023-05-30T07:04:24.714Z,6828.00
2023-05-30T07:05:24.578Z,6864.00
2023-05-30T07:06:24.577Z,6904.00
2023-05-30T07:07:24.558Z,6960.00
2023-05-30T07:08:24.567Z,7000.00
2023-05-30T07:09:24.560Z,6992.00
2023-05-30T07:10:24.567Z,7000.00
2023-05-30T07:11:24.521Z,7036.00
2023-05-30T07:12:26.194Z,7084.00
2023-05-30T07:13:24.477Z,7128.00
2023-05-30T07:14:24.492Z,7084.00
2023-05-30T07:15:24.462Z,7076.00
2023-05-30T07:16:24.451Z,7068.00
2023-05-30T07:17:24.477Z,7016.00
2023-05-30T07:18:24.433Z,6924.00
2023-05-30T07:19:24.437Z,6800.00
2023-05-30T07:20:24.638Z,6688.00
2023-05-30T07:21:24.413Z,6640.00
2023-05-30T07:22:24.419Z,6696.00
2023-05-30T07:23:24.370Z,6796.00
2023-05-30T07:24:24.399Z,6892.00
2023-05-30T07:25:24.368Z,6948.00
2023-05-30T07:26:24.400Z,7024.00
2023-05-30T07:27:24.359Z,7044.00
2023-05-30T07:28:24.342Z,7016.00
2023-05-30T07:29:24.330Z,7044.00
2023-05-30T07:30:24.375Z,7040.00
2023-05-30T07:31:24.356Z,7004.00
2023-05-30T07:32:24.384Z,6924.00
2023-05-30T07:33:24.290Z,6928.00
2023-05-30T07:34:24.272Z,6952.00
2023-05-30T07:35:24.277Z,6920.00
2023-05-30T07:36:24.255Z,6876.00
2023-05-30T07:37:24.234Z,6844.00
2023-05-30T07:38:24.229Z,6828.00
2023-05-30T07:39:24.216Z,6792.00
2023-05-30T07:40:24.213Z,6784.00
2023-05-30T07:41:24.192Z,6816.00
2023-05-30T07:42:24.174Z,6872.00
2023-05-30T07:43:24.172Z,6876.00
2023-05-30T07:44:24.176Z,6872.00
2023-05-30T07:45:24.159Z,6828.00
2023-05-30T07:46:24.192Z,6772.00
2023-05-30T07:47:24.165Z,6752.00
2023-05-30T07:48:24.124Z,6744.00
2023-05-30T07:49:24.124Z,6704.00
2023-05-30T07:50:24.122Z,6708.00
2023-05-30T07:51:24.102Z,6696.00
2023-05-30T07:52:24.084Z,6664.00
2023-05-30T07:53:24.078Z,6708.00
2023-05-30T07:54:24.094Z,6760.00
2023-05-30T07:55:24.056Z,6692.00
2023-05-30T07:56:24.055Z,6644.00
2023-05-30T07:57:24.037Z,6688.00
2023-05-30T07:58:24.019Z,6788.00
2023-05-30T07:59:24.010Z,6860.00
2023-05-30T08:00:23.988Z,6856.00
2023-05-30T08:01:23.999Z,6812.00
2023-05-30T08:02:24.035Z,6756.00
2023-05-30T08:03:24.026Z,6668.00
2023-05-30T08:04:23.975Z,6628.00
2023-05-30T08:05:23.951Z,6476.00
2023-05-30T08:06:23.935Z,6420.00
2023-05-30T08:07:23.927Z,6348.00
2023-05-30T08:08:23.914Z,6336.00
2023-05-30T08:09:23.915Z,6356.00
2023-05-30T08:10:23.940Z,6320.00
2023-05-30T08:11:23.901Z,6356.00
2023-05-30T08:12:23.872Z,6460.00
2023-05-30T08:13:23.853Z,6584.00
2023-05-30T08:14:23.858Z,6640.00
2023-05-30T08:15:23.848Z,6664.00
2023-05-30T08:16:23.865Z,6708.00
2023-05-30T08:17:23.867Z,6668.00
2023-05-30T08:18:23.797Z,6600.00
2023-05-30T08:19:23.806Z,6480.00
2023-05-30T08:20:23.849Z,6352.00
2023-05-30T08:21:23.806Z,6324.00
2023-05-30T08:22:23.783Z,6236.00
2023-05-30T08:23:23.770Z,6232.00
2023-05-30T08:24:23.763Z,6156.00
2023-05-30T08:25:23.797Z,6068.00
2023-05-30T08:26:23.749Z,5968.00
2023-05-30T08:27:23.745Z,5788.00
2023-05-30T08:28:23.708Z,5740.00
2023-05-30T08:29:23.704Z,5756.00
2023-05-30T08:30:23.701Z,5804.00
2023-05-30T08:31:23.697Z,5872.00
2023-05-30T08:32:23.744Z,6020.00
2023-05-30T08:33:23.681Z,6224.00
2023-05-30T08:34:23.653Z,6348.00
2023-05-30T08:35:23.656Z,6348.00
2023-05-30T08:36:23.643Z,6244.00
2023-05-30T08:37:23.637Z,6304.00
2023-05-30T08:38:23.680Z,6320.00
2023-05-30T08:39:23.636Z,6248.00
2023-05-30T08:40:23.618Z,6084.00
2023-05-30T08:41:23.579Z,5932.00
2023-05-30T08:42:23.636Z,5876.00
2023-05-30T08:43:23.571Z,5788.00
2023-05-30T08:44:23.559Z,5820.00
2023-05-30T08:45:23.546Z,5876.00
2023-05-30T08:46:23.612Z,5816.00
2023-05-30T08:47:24.960Z,5728.00
2023-05-30T08:48:23.544Z,5640.00
2023-05-30T08:49:23.529Z,5384.00
2023-05-30T08:50:23.512Z,5276.00
2023-05-30T08:51:23.502Z,5244.00
2023-05-30T08:52:23.497Z,5304.00
2023-05-30T08:53:23.483Z,5380.00
2023-05-30T08:54:23.489Z,5404.00
2023-05-30T08:55:23.489Z,5420.00
2023-05-30T08:56:23.441Z,5472.00
2023-05-30T08:57:23.429Z,5492.00
2023-05-30T08:58:23.427Z,5416.00
2023-05-30T08:59:23.424Z,5436.00
2023-05-30T09:00:23.396Z,5276.00
2023-05-30T09:01:23.436Z,5364.00
2023-05-30T09:02:23.413Z,5376.00
2023-05-30T09:03:23.392Z,5408.00
2023-05-30T09:04:23.383Z,5260.00
2023-05-30T09:05:24.327Z,5228.00
2023-05-30T09:06:23.348Z,5172.00
2023-05-30T09:07:23.320Z,5128.00
2023-05-30T09:08:23.299Z,5052.00
2023-05-30T09:09:23.294Z,5144.00
2023-05-30T09:10:23.301Z,5208.00
2023-05-30T09:11:23.291Z,5116.00
2023-05-30T09:12:23.265Z,4992.00
2023-05-30T09:13:23.268Z,4860.00
2023-05-30T09:14:23.255Z,4920.00
2023-05-30T09:15:23.245Z,4816.00
2023-05-30T09:16:23.284Z,4724.00
2023-05-30T09:17:23.323Z,4668.00
2023-05-30T09:18:23.218Z,4572.00
2023-05-30T09:19:23.192Z,4516.00
2023-05-30T09:20:23.268Z,4424.00
2023-05-30T09:21:23.185Z,4304.00
2023-05-30T09:22:23.154Z,4320.00
2023-05-30T09:23:23.158Z,4392.00
2023-05-30T09:24:23.141Z,4548.00
2023-05-30T09:25:23.139Z,4588.00
2023-05-30T09:26:23.121Z,4596.00
2023-05-30T09:27:23.230Z,4596.00
2023-05-30T09:28:23.093Z,4548.00
2023-05-30T09:29:23.100Z,4468.00
2023-05-30T09:30:23.081Z,4448.00
2023-05-30T09:31:23.132Z,4384.00
2023-05-30T09:32:23.133Z,4332.00
2023-05-30T09:33:23.055Z,4292.00
2023-05-30T09:34:23.022Z,4216.00
2023-05-30T09:35:23.034Z,4176.00
2023-05-30T09:36:23.018Z,4112.00
2023-05-30T09:37:23.018Z,3984.00
2023-05-30T09:38:23.006Z,4040.00
2023-05-30T09:39:22.982Z,4112.00
2023-05-30T09:40:22.980Z,4120.00
2023-05-30T09:41:22.984Z,3840.00
2023-05-30T09:42:22.969Z,3916.00
2023-05-30T09:43:22.961Z,3968.00
2023-05-30T09:44:22.927Z,3912.00
2023-05-30T09:45:22.934Z,3892.00
2023-05-30T09:46:23.012Z,3864.00
2023-05-30T09:47:22.905Z,3840.00
2023-05-30T09:48:22.909Z,3848.00
2023-05-30T09:49:22.863Z,3840.00
2023-05-30T09:50:22.885Z,3760.00
2023-05-30T09:51:22.853Z,3756.00
2023-05-30T09:52:22.837Z,3796.00
2023-05-30T09:53:22.837Z,3868.00
2023-05-30T09:54:22.844Z,3928.00
2023-05-30T09:55:22.807Z,3928.00
2023-05-30T09:56:22.798Z,3884.00
2023-05-30T09:57:22.800Z,3932.00
2023-05-30T09:58:22.759Z,3960.00
2023-05-30T09:59:22.778Z,3976.00
2023-05-30T10:00:22.749Z,3952.00
2023-05-30T10:01:22.835Z,3980.00
2023-05-30T10:02:22.785Z,3988.00
2023-05-30T10:03:22.785Z,4028.00
2023-05-30T10:04:22.716Z,4012.00
2023-05-30T10:05:22.708Z,4004.00
2023-05-30T10:06:22.733Z,3960.00
2023-05-30T10:07:22.701Z,3928.00
2023-05-30T10:08:22.674Z,3956.00
2023-05-30T10:09:22.682Z,3984.00
2023-05-30T10:10:22.652Z,3976.00
2023-05-30T10:11:22.645Z,4020.00
2023-05-30T10:12:22.636Z,4080.00
2023-05-30T10:13:22.630Z,4048.00
2023-05-30T10:14:22.641Z,4104.00
2023-05-30T10:15:22.612Z,4184.00
2023-05-30T10:16:22.636Z,4176.00
2023-05-30T10:17:22.608Z,4324.00
2023-05-30T10:18:22.577Z,4424.00
2023-05-30T10:19:22.547Z,4348.00
2023-05-30T10:20:22.621Z,4316.00
2023-05-30T10:21:22.535Z,4232.00
2023-05-30T10:22:22.524Z,4156.00
2023-05-30T10:23:22.526Z,4136.00
2023-05-30T10:24:22.512Z,4100.00
2023-05-30T10:25:22.471Z,4096.00
2023-05-30T10:26:22.467Z,4088.00
2023-05-30T10:27:22.481Z,4056.00
2023-05-30T10:28:22.449Z,4052.00
2023-05-30T10:29:22.493Z,4068.00
2023-05-30T10:30:22.425Z,4064.00
2023-05-30T10:31:22.468Z,4068.00
2023-05-30T10:32:22.411Z,4036.00
2023-05-30T10:33:30.118Z,4052.00
2023-05-30T10:34:22.400Z,4064.00
2023-05-30T10:35:22.366Z,4052.00
2023-05-30T10:36:22.342Z,4052.00
2023-05-30T10:37:22.349Z,3988.00
2023-05-30T10:38:22.334Z,4044.00
2023-05-30T10:39:22.327Z,4108.00
2023-05-30T10:40:22.296Z,4112.00
2023-05-30T10:41:22.313Z,4124.00
2023-05-30T10:42:22.285Z,4108.00
2023-05-30T10:43:22.287Z,4228.00
2023-05-30T10:44:22.255Z,4236.00
2023-05-30T10:45:22.254Z,4204.00
2023-05-30T10:46:22.373Z,4164.00
2023-05-30T10:47:22.263Z,4212.00
2023-05-30T10:48:22.299Z,4240.00
2023-05-30T10:49:22.303Z,4272.00
2023-05-30T10:50:22.197Z,4272.00
2023-05-30T10:51:22.201Z,4252.00
2023-05-30T10:52:22.174Z,4240.00
2023-05-30T10:53:22.183Z,4272.00
2023-05-30T10:54:22.150Z,4344.00
2023-05-30T10:55:22.146Z,4408.00
2023-05-30T10:56:22.115Z,4372.00
2023-05-30T10:57:22.256Z,4412.00
2023-05-30T10:58:22.099Z,4364.00
2023-05-30T10:59:22.121Z,4400.00
2023-05-30T11:00:22.098Z,4440.00
2023-05-30T11:01:22.102Z,4484.00
2023-05-30T11:02:22.059Z,4592.00
2023-05-30T11:03:22.096Z,4592.00
2023-05-30T11:04:22.093Z,4568.00
2023-05-30T11:05:22.033Z,4556.00
2023-05-30T11:06:22.019Z,4532.00
2023-05-30T11:07:21.992Z,4500.00
2023-05-30T11:08:22.002Z,4492.00
2023-05-30T11:09:21.995Z,4468.00
2023-05-30T11:10:21.978Z,4488.00
2023-05-30T11:11:21.985Z,4452.00
2023-05-30T11:12:21.973Z,4452.00
2023-05-30T11:13:21.942Z,4504.00
2023-05-30T11:14:21.930Z,4536.00
2023-05-30T11:15:21.918Z,4548.00
2023-05-30T11:16:21.937Z,4544.00
2023-05-30T11:17:21.901Z,4544.00
2023-05-30T11:18:21.885Z,4560.00
2023-05-30T11:19:21.880Z,4616.00
2023-05-30T11:20:21.924Z,4656.00
2023-05-30T11:21:21.853Z,4740.00
2023-05-30T11:22:21.824Z,4828.00
2023-05-30T11:23:21.822Z,4908.00
2023-05-30T11:24:21.846Z,5012.00
2023-05-30T11:25:21.815Z,5088.00
2023-05-30T11:26:21.806Z,5076.00
2023-05-30T11:27:21.793Z,4936.00
2023-05-30T11:28:21.759Z,5136.00
2023-05-30T11:29:21.759Z,5392.00
2023-05-30T11:30:21.743Z,5220.00
2023-05-30T11:31:22.071Z,5176.00
2023-05-30T11:32:21.772Z,5500.00
2023-05-30T11:33:21.714Z,5824.00
2023-05-30T11:34:21.713Z,5804.00
2023-05-30T11:35:21.685Z,5704.00
2023-05-30T11:36:21.689Z,6028.00
2023-05-30T11:37:21.678Z,6348.00
2023-05-30T11:38:21.676Z,6120.00
2023-05-30T11:39:21.636Z,5904.00
2023-05-30T11:40:21.637Z,5648.00
2023-05-30T11:41:21.613Z,5428.00
2023-05-30T11:42:21.615Z,5528.00
2023-05-30T11:43:21.605Z,5884.00
2023-05-30T11:44:21.626Z,6492.00
2023-05-30T11:45:21.570Z,6480.00
2023-05-30T11:46:21.735Z,6088.00
2023-05-30T11:47:43.873Z,5672.00
2023-05-30T11:48:21.663Z,5524.00
2023-05-30T11:49:21.526Z,5464.00
2023-05-30T11:50:21.538Z,5508.00
2023-05-30T11:51:21.514Z,5588.00
2023-05-30T11:52:21.492Z,5456.00
2023-05-30T11:53:21.503Z,5452.00
2023-05-30T11:54:21.478Z,5464.00
2023-05-30T11:55:21.446Z,5468.00
2023-05-30T11:56:21.453Z,5516.00
2023-05-30T11:57:21.434Z,5560.00
2023-05-30T11:58:21.436Z,5584.00
2023-05-30T11:59:21.415Z,5592.00
2023-05-30T12:00:21.405Z,5664.00
2023-05-30T12:01:21.392Z,5692.00
2023-05-30T12:02:21.429Z,5696.00
2023-05-30T12:03:21.405Z,5668.00
2023-05-30T12:04:21.444Z,5688.00
2023-05-30T12:05:21.421Z,5736.00
2023-05-30T12:06:21.380Z,5756.00
2023-05-30T12:07:21.330Z,5816.00
2023-05-30T12:08:21.317Z,5844.00
2023-05-30T12:09:21.300Z,5864.00
2023-05-30T12:10:21.279Z,5988.00
2023-05-30T12:11:21.274Z,6096.00
2023-05-30T12:12:21.265Z,6160.00
2023-05-30T12:13:21.229Z,6312.00
2023-05-30T12:14:21.250Z,6700.00
2023-05-30T12:15:21.218Z,7476.00
2023-05-30T12:16:21.267Z,9428.00
2023-05-30T12:17:21.197Z,32896.00
2023-05-30T12:18:21.366Z,53632.00
2023-05-30T12:19:21.165Z,62080.00
2023-05-30T12:20:21.189Z,62336.00
2023-05-30T12:21:21.170Z,63680.00
2023-05-30T12:22:21.128Z,62208.00
2023-05-30T12:23:21.128Z,8428.00
2023-05-30T12:24:21.115Z,61568.00
2023-05-30T12:25:21.121Z,62368.00